Aviation Digital Data Service (ADDS)

Output produced by METARs form (0432 UTC 26 June 2019)
found at http://www.aviationweather.gov/metar/data/
 
METAR text: KFAT 260353Z 31011KT 10SM FEW090 FEW200 31/07 A2976 RMK AO2 SLP073 T03060072
Conditions at: KFAT (FRESNO , CA, US) observed 0353 UTC 26 June 2019
Temperature: 30.6°C (87°F)
Dewpoint: 7.2°C (45°F) [RH = 23%]
Pressure (altimeter): 29.76 inches Hg (1007.9 mb)
[Sea-level pressure: 1007.3 mb]
Winds: from the NW (310 degrees) at 13 MPH (11 knots; 5.7 m/s)
Visibility: 10 or more miles (16+ km)
Ceiling: at least 12,000 feet AGL
Clouds: few clouds at 9000 feet AGL
few clouds at 20000 feet AGL
Weather: no significant weather observed at this time

METAR text: KFAT 260253Z 32012KT 10SM FEW110 FEW200 32/08 A2975 RMK AO2 SLP071 T03220078 53004
Conditions at: KFAT (FRESNO , CA, US) observed 0253 UTC 26 June 2019
Temperature: 32.2°C (90°F)
Dewpoint: 7.8°C (46°F) [RH = 22%]
Pressure (altimeter): 29.75 inches Hg (1007.5 mb)
[Sea-level pressure: 1007.1 mb]
Winds: from the NW (320 degrees) at 14 MPH (12 knots; 6.2 m/s)
Visibility: 10 or more miles (16+ km)
Ceiling: at least 12,000 feet AGL
Clouds: few clouds at 11000 feet AGL
few clouds at 20000 feet AGL
Weather: no significant weather observed at this time

METAR text: KFAT 260153Z 32013KT 10SM FEW120 FEW200 34/03 A2974 RMK AO2 SLP065 CCSL OMTNS DSNT N-NE T03440033
Conditions at: KFAT (FRESNO , CA, US) observed 0153 UTC 26 June 2019
Temperature: 34.4°C (94°F)
Dewpoint: 3.3°C (38°F) [RH = 14%]
Pressure (altimeter): 29.74 inches Hg (1007.2 mb)
[Sea-level pressure: 1006.5 mb]
Winds: from the NW (320 degrees) at 15 MPH (13 knots; 6.7 m/s)
Visibility: 10 or more miles (16+ km)
Ceiling: at least 12,000 feet AGL
Clouds: few clouds at 12000 feet AGL
few clouds at 20000 feet AGL
Weather: no significant weather observed at this time

METAR text: KFAT 260053Z 29011KT 10SM FEW120 FEW200 34/04 A2974 RMK AO2 SLP065 FEW CU DSNT N-NE CCSL DSNT N T03440044
Conditions at: KFAT (FRESNO , CA, US) observed 0053 UTC 26 June 2019
Temperature: 34.4°C (94°F)
Dewpoint: 4.4°C (40°F) [RH = 15%]
Pressure (altimeter): 29.74 inches Hg (1007.2 mb)
[Sea-level pressure: 1006.5 mb]
Winds: from the WNW (290 degrees) at 13 MPH (11 knots; 5.7 m/s)
Visibility: 10 or more miles (16+ km)
Ceiling: at least 12,000 feet AGL
Clouds: few clouds at 12000 feet AGL
few clouds at 20000 feet AGL
Weather: no significant weather observed at this time

METAR text: KFAT 252353Z 32010G17KT 10SM FEW120 FEW200 34/03 A2974 RMK AO2 SLP066 FEW CU DSNT NE-E T03440028 10356 20300 58013
Conditions at: KFAT (FRESNO , CA, US) observed 2353 UTC 25 June 2019
Temperature: 34.4°C (94°F)
Dewpoint: 2.8°C (37°F) [RH = 14%]
Pressure (altimeter): 29.74 inches Hg (1007.2 mb)
[Sea-level pressure: 1006.6 mb]
Winds: from the NW (320 degrees) at 12 MPH (10 knots; 5.1 m/s)
gusting to 20 MPH (17 knots; 8.7 m/s)
Visibility: 10 or more miles (16+ km)
Ceiling: at least 12,000 feet AGL
Clouds: few clouds at 12000 feet AGL
few clouds at 20000 feet AGL
Weather: no significant weather observed at this time

METAR text: KFAT 252253Z 29012KT 10SM FEW070 FEW120 SCT200 35/02 A2975 RMK AO2 SLP070 T03500022
Conditions at: KFAT (FRESNO , CA, US) observed 2253 UTC 25 June 2019
Temperature: 35.0°C (95°F)
Dewpoint: 2.2°C (36°F) [RH = 13%]
Pressure (altimeter): 29.75 inches Hg (1007.5 mb)
[Sea-level pressure: 1007.0 mb]
Winds: from the WNW (290 degrees) at 14 MPH (12 knots; 6.2 m/s)
Visibility: 10 or more miles (16+ km)
Ceiling: at least 12,000 feet AGL
Clouds: few clouds at 7000 feet AGL
few clouds at 12000 feet AGL
scattered clouds at 20000 feet AGL
Weather: no significant weather observed at this time

METAR text: KFAT 252153Z 30012G15KT 10SM FEW070 FEW200 34/06 A2977 RMK AO2 SLP075 CU OMTNS DSNT E T03440056
Conditions at: KFAT (FRESNO , CA, US) observed 2153 UTC 25 June 2019
Temperature: 34.4°C (94°F)
Dewpoint: 5.6°C (42°F) [RH = 17%]
Pressure (altimeter): 29.77 inches Hg (1008.2 mb)
[Sea-level pressure: 1007.5 mb]
Winds: from the WNW (300 degrees) at 14 MPH (12 knots; 6.2 m/s)
gusting to 17 MPH (15 knots; 7.7 m/s)
Visibility: 10 or more miles (16+ km)
Ceiling: at least 12,000 feet AGL
Clouds: few clouds at 7000 feet AGL
few clouds at 20000 feet AGL
Weather: no significant weather observed at this time

METAR text: KFAT 252053Z 29008KT 10SM FEW070 FEW200 34/04 A2978 RMK AO2 SLP079 T03440044 56006
Conditions at: KFAT (FRESNO , CA, US) observed 2053 UTC 25 June 2019
Temperature: 34.4°C (94°F)
Dewpoint: 4.4°C (40°F) [RH = 15%]
Pressure (altimeter): 29.78 inches Hg (1008.5 mb)
[Sea-level pressure: 1007.9 mb]
Winds: from the WNW (290 degrees) at 9 MPH (8 knots; 4.1 m/s)
Visibility: 10 or more miles (16+ km)
Ceiling: at least 12,000 feet AGL
Clouds: few clouds at 7000 feet AGL
few clouds at 20000 feet AGL
Weather: no significant weather observed at this time

METAR text: KFAT 251953Z 30004KT 10SM FEW070 SCT200 33/05 A2978 RMK AO2 SLP081 T03280050
Conditions at: KFAT (FRESNO , CA, US) observed 1953 UTC 25 June 2019
Temperature: 32.8°C (91°F)
Dewpoint: 5.0°C (41°F) [RH = 18%]
Pressure (altimeter): 29.78 inches Hg (1008.5 mb)
[Sea-level pressure: 1008.1 mb]
Winds: from the WNW (300 degrees) at 5 MPH (4 knots; 2.1 m/s)
Visibility: 10 or more miles (16+ km)
Ceiling: at least 12,000 feet AGL
Clouds: few clouds at 7000 feet AGL
scattered clouds at 20000 feet AGL
Weather: no significant weather observed at this time

METAR text: KFAT 251853Z 29007KT 10SM FEW080 SCT200 32/08 A2979 RMK AO2 SLP083 T03220078
Conditions at: KFAT (FRESNO , CA, US) observed 1853 UTC 25 June 2019
Temperature: 32.2°C (90°F)
Dewpoint: 7.8°C (46°F) [RH = 22%]
Pressure (altimeter): 29.79 inches Hg (1008.9 mb)
[Sea-level pressure: 1008.3 mb]
Winds: from the WNW (290 degrees) at 8 MPH (7 knots; 3.6 m/s)
Visibility: 10 or more miles (16+ km)
Ceiling: at least 12,000 feet AGL
Clouds: few clouds at 8000 feet AGL
scattered clouds at 20000 feet AGL
Weather: no significant weather observed at this time

METAR text: KFAT 251753Z 30005KT 10SM FEW100 SCT200 30/08 A2980 RMK AO2 SLP085 T03000083 10306 20200 50002
Conditions at: KFAT (FRESNO , CA, US) observed 1753 UTC 25 June 2019
Temperature: 30.0°C (86°F)
Dewpoint: 8.3°C (47°F) [RH = 26%]
Pressure (altimeter): 29.80 inches Hg (1009.2 mb)
[Sea-level pressure: 1008.5 mb]
Winds: from the WNW (300 degrees) at 6 MPH (5 knots; 2.6 m/s)
Visibility: 10 or more miles (16+ km)
Ceiling: at least 12,000 feet AGL
Clouds: few clouds at 10000 feet AGL
scattered clouds at 20000 feet AGL
Weather: no significant weather observed at this time

METAR text: KFAT 251653Z 29003KT 10SM FEW070 BKN200 28/09 A2980 RMK AO2 SLP086 T02830089
Conditions at: KFAT (FRESNO , CA, US) observed 1653 UTC 25 June 2019
Temperature: 28.3°C (83°F)
Dewpoint: 8.9°C (48°F) [RH = 30%]
Pressure (altimeter): 29.80 inches Hg (1009.2 mb)
[Sea-level pressure: 1008.6 mb]
Winds: from the WNW (290 degrees) at 3 MPH (3 knots; 1.5 m/s)
Visibility: 10 or more miles (16+ km)
Ceiling: 20000 feet AGL
Clouds: few clouds at 7000 feet AGL
broken clouds at 20000 feet AGL
Weather: no significant weather observed at this time

METAR text: KFAT 251553Z 30003KT 10SM FEW110 BKN200 26/10 A2981 RMK AO2 SLP089 T02560100
Conditions at: KFAT (FRESNO , CA, US) observed 1553 UTC 25 June 2019
Temperature: 25.6°C (78°F)
Dewpoint: 10.0°C (50°F) [RH = 37%]
Pressure (altimeter): 29.81 inches Hg (1009.6 mb)
[Sea-level pressure: 1008.9 mb]
Winds: from the WNW (300 degrees) at 3 MPH (3 knots; 1.5 m/s)
Visibility: 10 or more miles (16+ km)
Ceiling: 20000 feet AGL
Clouds: few clouds at 11000 feet AGL
broken clouds at 20000 feet AGL
Weather: no significant weather observed at this time

METAR text: KFAT 251453Z 29003KT 10SM FEW120 BKN250 22/11 A2979 RMK AO2 SLP083 T02220111 53014
Conditions at: KFAT (FRESNO , CA, US) observed 1453 UTC 25 June 2019
Temperature: 22.2°C (72°F)
Dewpoint: 11.1°C (52°F) [RH = 49%]
Pressure (altimeter): 29.79 inches Hg (1008.9 mb)
[Sea-level pressure: 1008.3 mb]
Winds: from the WNW (290 degrees) at 3 MPH (3 knots; 1.5 m/s)
Visibility: 10 or more miles (16+ km)
Ceiling: 25000 feet AGL
Clouds: few clouds at 12000 feet AGL
broken clouds at 25000 feet AGL
Weather: no significant weather observed at this time

METAR text: KFAT 251353Z 31007KT 10SM SCT100 SCT150 SCT200 21/11 A2977 RMK AO2 SLP075 MTNS OBSC HZ DSNT N-E-S T02060106
Conditions at: KFAT (FRESNO , CA, US) observed 1353 UTC 25 June 2019
Temperature: 20.6°C (69°F)
Dewpoint: 10.6°C (51°F) [RH = 53%]
Pressure (altimeter): 29.77 inches Hg (1008.2 mb)
[Sea-level pressure: 1007.5 mb]
Winds: from the NW (310 degrees) at 8 MPH (7 knots; 3.6 m/s)
Visibility: 10 or more miles (16+ km)
Ceiling: at least 12,000 feet AGL
Clouds: scattered clouds at 10000 feet AGL
scattered clouds at 15000 feet AGL
scattered clouds at 20000 feet AGL
Weather: no significant weather observed at this time

METAR text: KFAT 251253Z 33004KT 10SM SCT100 SCT200 21/11 A2976 RMK AO2 SLP071 T02060111
Conditions at: KFAT (FRESNO , CA, US) observed 1253 UTC 25 June 2019
Temperature: 20.6°C (69°F)
Dewpoint: 11.1°C (52°F) [RH = 54%]
Pressure (altimeter): 29.76 inches Hg (1007.9 mb)
[Sea-level pressure: 1007.1 mb]
Winds: from the NNW (330 degrees) at 5 MPH (4 knots; 2.1 m/s)
Visibility: 10 or more miles (16+ km)
Ceiling: at least 12,000 feet AGL
Clouds: scattered clouds at 10000 feet AGL
scattered clouds at 20000 feet AGL
Weather: no significant weather observed at this time

METAR text: KFAT 251153Z 33004KT 10SM SCT100 SCT200 21/11 A2975 RMK AO2 SLP069 7//// T02110111 10283 20211 55001
Conditions at: KFAT (FRESNO , CA, US) observed 1153 UTC 25 June 2019
Temperature: 21.1°C (70°F)
Dewpoint: 11.1°C (52°F) [RH = 53%]
Pressure (altimeter): 29.75 inches Hg (1007.5 mb)
[Sea-level pressure: 1006.9 mb]
Winds: from the NNW (330 degrees) at 5 MPH (4 knots; 2.1 m/s)
Visibility: 10 or more miles (16+ km)
Ceiling: at least 12,000 feet AGL
Clouds: scattered clouds at 10000 feet AGL
scattered clouds at 20000 feet AGL
Weather: no significant weather observed at this time

METAR text: KFAT 251053Z 32010KT 10SM SCT200 22/11 A2975 RMK AO2 SLP069 T02220111
Conditions at: KFAT (FRESNO , CA, US) observed 1053 UTC 25 June 2019
Temperature: 22.2°C (72°F)
Dewpoint: 11.1°C (52°F) [RH = 49%]
Pressure (altimeter): 29.75 inches Hg (1007.5 mb)
[Sea-level pressure: 1006.9 mb]
Winds: from the NW (320 degrees) at 12 MPH (10 knots; 5.1 m/s)
Visibility: 10 or more miles (16+ km)
Ceiling: at least 12,000 feet AGL
Clouds: scattered clouds at 20000 feet AGL
Weather: no significant weather observed at this time

METAR text: KFAT 250953Z 32008KT 10SM FEW200 23/12 A2975 RMK AO2 SLP069 T02280122
Conditions at: KFAT (FRESNO , CA, US) observed 0953 UTC 25 June 2019
Temperature: 22.8°C (73°F)
Dewpoint: 12.2°C (54°F) [RH = 51%]
Pressure (altimeter): 29.75 inches Hg (1007.5 mb)
[Sea-level pressure: 1006.9 mb]
Winds: from the NW (320 degrees) at 9 MPH (8 knots; 4.1 m/s)
Visibility: 10 or more miles (16+ km)
Ceiling: at least 12,000 feet AGL
Clouds: few clouds at 20000 feet AGL
Weather: no significant weather observed at this time

METAR text: KFAT 250853Z 33008KT 10SM FEW200 23/12 A2975 RMK AO2 SLP071 T02330122 58001
Conditions at: KFAT (FRESNO , CA, US) observed 0853 UTC 25 June 2019
Temperature: 23.3°C (74°F)
Dewpoint: 12.2°C (54°F) [RH = 50%]
Pressure (altimeter): 29.75 inches Hg (1007.5 mb)
[Sea-level pressure: 1007.1 mb]
Winds: from the NNW (330 degrees) at 9 MPH (8 knots; 4.1 m/s)
Visibility: 10 or more miles (16+ km)
Ceiling: at least 12,000 feet AGL
Clouds: few clouds at 20000 feet AGL
Weather: no significant weather observed at this time

METAR text: KFAT 250753Z 32009KT 10SM CLR 26/12 A2976 RMK AO2 SLP072 T02560117 403780217
Conditions at: KFAT (FRESNO , CA, US) observed 0753 UTC 25 June 2019
Temperature: 25.6°C (78°F)
Dewpoint: 11.7°C (53°F) [RH = 42%]
Pressure (altimeter): 29.76 inches Hg (1007.9 mb)
[Sea-level pressure: 1007.2 mb]
Winds: from the NW (320 degrees) at 10 MPH (9 knots; 4.6 m/s)
Visibility: 10 or more miles (16+ km)
Ceiling: at least 12,000 feet AGL
Clouds: sky clear below 12,000 feet AGL
Weather: no significant weather observed at this time

METAR text: KFAT 250653Z 29012KT 10SM CLR 27/13 A2976 RMK AO2 SLP073 T02670128
Conditions at: KFAT (FRESNO , CA, US) observed 0653 UTC 25 June 2019
Temperature: 26.7°C (80°F)
Dewpoint: 12.8°C (55°F) [RH = 42%]
Pressure (altimeter): 29.76 inches Hg (1007.9 mb)
[Sea-level pressure: 1007.3 mb]
Winds: from the WNW (290 degrees) at 14 MPH (12 knots; 6.2 m/s)
Visibility: 10 or more miles (16+ km)
Ceiling: at least 12,000 feet AGL
Clouds: sky clear below 12,000 feet AGL
Weather: no significant weather observed at this time

METAR text: KFAT 250553Z 31009KT 10SM FEW150 28/12 A2976 RMK AO2 SLP071 T02830117 10367 20283 53007
Conditions at: KFAT (FRESNO , CA, US) observed 0553 UTC 25 June 2019
Temperature: 28.3°C (83°F)
Dewpoint: 11.7°C (53°F) [RH = 36%]
Pressure (altimeter): 29.76 inches Hg (1007.9 mb)
[Sea-level pressure: 1007.1 mb]
Winds: from the NW (310 degrees) at 10 MPH (9 knots; 4.6 m/s)
Visibility: 10 or more miles (16+ km)
Ceiling: at least 12,000 feet AGL
Clouds: few clouds at 15000 feet AGL
Weather: no significant weather observed at this time

METAR text: KFAT 250453Z 32009KT 10SM FEW150 29/12 A2975 RMK AO2 SLP070 T02940117
Conditions at: KFAT (FRESNO , CA, US) observed 0453 UTC 25 June 2019
Temperature: 29.4°C (85°F)
Dewpoint: 11.7°C (53°F) [RH = 34%]
Pressure (altimeter): 29.75 inches Hg (1007.5 mb)
[Sea-level pressure: 1007.0 mb]
Winds: from the NW (320 degrees) at 10 MPH (9 knots; 4.6 m/s)
Visibility: 10 or more miles (16+ km)
Ceiling: at least 12,000 feet AGL
Clouds: few clouds at 15000 feet AGL
Weather: no significant weather observed at this time

METAR text: KFAT 250353Z 31013KT 10SM SCT150 BKN200 32/09 A2973 RMK AO2 SLP064 T03170094
Conditions at: KFAT (FRESNO , CA, US) observed 0353 UTC 25 June 2019
Temperature: 31.7°C (89°F)
Dewpoint: 9.4°C (49°F) [RH = 25%]
Pressure (altimeter): 29.73 inches Hg (1006.9 mb)
[Sea-level pressure: 1006.4 mb]
Winds: from the NW (310 degrees) at 15 MPH (13 knots; 6.7 m/s)
Visibility: 10 or more miles (16+ km)
Ceiling: 20000 feet AGL
Clouds: scattered clouds at 15000 feet AGL
broken clouds at 20000 feet AGL
Weather: no significant weather observed at this time

METAR text: KFAT 250253Z 31010KT 10SM FEW120 SCT150 BKN200 34/07 A2973 RMK AO2 SLP064 T03390072 55003
Conditions at: KFAT (FRESNO , CA, US) observed 0253 UTC 25 June 2019
Temperature: 33.9°C (93°F)
Dewpoint: 7.2°C (45°F) [RH = 19%]
Pressure (altimeter): 29.73 inches Hg (1006.9 mb)
[Sea-level pressure: 1006.4 mb]
Winds: from the NW (310 degrees) at 12 MPH (10 knots; 5.1 m/s)
Visibility: 10 or more miles (16+ km)
Ceiling: 20000 feet AGL
Clouds: few clouds at 12000 feet AGL
scattered clouds at 15000 feet AGL
broken clouds at 20000 feet AGL
Weather: no significant weather observed at this time

METAR text: KFAT 250153Z 31010KT 10SM FEW110 SCT150 BKN200 36/04 A2973 RMK AO2 SLP064 T03560044
Conditions at: KFAT (FRESNO , CA, US) observed 0153 UTC 25 June 2019
Temperature: 35.6°C (96°F)
Dewpoint: 4.4°C (40°F) [RH = 14%]
Pressure (altimeter): 29.73 inches Hg (1006.9 mb)
[Sea-level pressure: 1006.4 mb]
Winds: from the NW (310 degrees) at 12 MPH (10 knots; 5.1 m/s)
Visibility: 10 or more miles (16+ km)
Ceiling: 20000 feet AGL
Clouds: few clouds at 11000 feet AGL
scattered clouds at 15000 feet AGL
broken clouds at 20000 feet AGL
Weather: no significant weather observed at this time

METAR text: KFAT 250053Z 30010KT 10SM FEW120 SCT150 BKN200 36/07 A2973 RMK AO2 SLP063 FEW CLDS TPG MTNS DSNT NE-E T03560067
Conditions at: KFAT (FRESNO , CA, US) observed 0053 UTC 25 June 2019
Temperature: 35.6°C (96°F)
Dewpoint: 6.7°C (44°F) [RH = 17%]
Pressure (altimeter): 29.73 inches Hg (1006.9 mb)
[Sea-level pressure: 1006.3 mb]
Winds: from the WNW (300 degrees) at 12 MPH (10 knots; 5.1 m/s)
Visibility: 10 or more miles (16+ km)
Ceiling: 20000 feet AGL
Clouds: few clouds at 12000 feet AGL
scattered clouds at 15000 feet AGL
broken clouds at 20000 feet AGL
Weather: no significant weather observed at this time

METAR text: KFAT 242353Z 30008KT 10SM FEW100 SCT140 BKN200 37/05 A2974 RMK AO2 SLP067 CLDS TPG MTNS DSNT N-NE-E T03670050 10378 20306 58017
Conditions at: KFAT (FRESNO , CA, US) observed 2353 UTC 24 June 2019
Temperature: 36.7°C (98°F)
Dewpoint: 5.0°C (41°F) [RH = 14%]
Pressure (altimeter): 29.74 inches Hg (1007.2 mb)
[Sea-level pressure: 1006.7 mb]
Winds: from the WNW (300 degrees) at 9 MPH (8 knots; 4.1 m/s)
Visibility: 10 or more miles (16+ km)
Ceiling: 20000 feet AGL
Clouds: few clouds at 10000 feet AGL
scattered clouds at 14000 feet AGL
broken clouds at 20000 feet AGL
Weather: no significant weather observed at this time

METAR text: KFAT 242253Z 21004KT 10SM FEW100 SCT130 BKN200 37/02 A2976 RMK AO2 SLP073 CLDS TPG MTNS DSNT N-NE-E T03670017
Conditions at: KFAT (FRESNO , CA, US) observed 2253 UTC 24 June 2019
Temperature: 36.7°C (98°F)
Dewpoint: 1.7°C (35°F) [RH = 11%]
Pressure (altimeter): 29.76 inches Hg (1007.9 mb)
[Sea-level pressure: 1007.3 mb]
Winds: from the SSW (210 degrees) at 5 MPH (4 knots; 2.1 m/s)
Visibility: 10 or more miles (16+ km)
Ceiling: 20000 feet AGL
Clouds: few clouds at 10000 feet AGL
scattered clouds at 13000 feet AGL
broken clouds at 20000 feet AGL
Weather: no significant weather observed at this time

METAR text: KFAT 242153Z 29005KT 10SM FEW100 BKN200 36/02 A2978 RMK AO2 SLP080 T03610017
Conditions at: KFAT (FRESNO , CA, US) observed 2153 UTC 24 June 2019
Temperature: 36.1°C (97°F)
Dewpoint: 1.7°C (35°F) [RH = 12%]
Pressure (altimeter): 29.78 inches Hg (1008.5 mb)
[Sea-level pressure: 1008.0 mb]
Winds: from the WNW (290 degrees) at 6 MPH (5 knots; 2.6 m/s)
Visibility: 10 or more miles (16+ km)
Ceiling: 20000 feet AGL
Clouds: few clouds at 10000 feet AGL
broken clouds at 20000 feet AGL
Weather: no significant weather observed at this time

METAR text: KFAT 242053Z 30011KT 10SM SCT200 BKN250 36/05 A2980 RMK AO2 SLP085 T03610050 58016
Conditions at: KFAT (FRESNO , CA, US) observed 2053 UTC 24 June 2019
Temperature: 36.1°C (97°F)
Dewpoint: 5.0°C (41°F) [RH = 15%]
Pressure (altimeter): 29.80 inches Hg (1009.2 mb)
[Sea-level pressure: 1008.5 mb]
Winds: from the WNW (300 degrees) at 13 MPH (11 knots; 5.7 m/s)
Visibility: 10 or more miles (16+ km)
Ceiling: 25000 feet AGL
Clouds: scattered clouds at 20000 feet AGL
broken clouds at 25000 feet AGL
Weather: no significant weather observed at this time

METAR text: KFAT 241953Z 30003KT 10SM FEW200 BKN250 35/10 A2982 RMK AO2 SLP091 T03500100
Conditions at: KFAT (FRESNO , CA, US) observed 1953 UTC 24 June 2019
Temperature: 35.0°C (95°F)
Dewpoint: 10.0°C (50°F) [RH = 22%]
Pressure (altimeter): 29.82 inches Hg (1009.9 mb)
[Sea-level pressure: 1009.1 mb]
Winds: from the WNW (300 degrees) at 3 MPH (3 knots; 1.5 m/s)
Visibility: 10 or more miles (16+ km)
Ceiling: 25000 feet AGL
Clouds: few clouds at 20000 feet AGL
broken clouds at 25000 feet AGL
Weather: no significant weather observed at this time

METAR text: KFAT 241853Z 29003KT 10SM SCT200 32/13 A2983 RMK AO2 SLP097 T03220128
Conditions at: KFAT (FRESNO , CA, US) observed 1853 UTC 24 June 2019
Temperature: 32.2°C (90°F)
Dewpoint: 12.8°C (55°F) [RH = 31%]
Pressure (altimeter): 29.83 inches Hg (1010.2 mb)
[Sea-level pressure: 1009.7 mb]
Winds: from the WNW (290 degrees) at 3 MPH (3 knots; 1.5 m/s)
Visibility: 10 or more miles (16+ km)
Ceiling: at least 12,000 feet AGL
Clouds: scattered clouds at 20000 feet AGL
Weather: no significant weather observed at this time

METAR text: KFAT 241753Z 12005KT 10SM SCT200 31/13 A2984 RMK AO2 SLP101 6//// T03060128 10306 20217 58004 PNO $
Conditions at: KFAT (FRESNO , CA, US) observed 1753 UTC 24 June 2019
Temperature: 30.6°C (87°F)
Dewpoint: 12.8°C (55°F) [RH = 34%]
Pressure (altimeter): 29.84 inches Hg (1010.6 mb)
[Sea-level pressure: 1010.1 mb]
Winds: from the ESE (120 degrees) at 6 MPH (5 knots; 2.6 m/s)
Visibility: 10 or more miles (16+ km)
Ceiling: at least 12,000 feet AGL
Clouds: scattered clouds at 20000 feet AGL
Weather:
SOME DATA ABOVE MAY BE INACCURATE!!!
"$" is an indication the sensor requires maintenance

METAR text: KFAT 241653Z 12006KT 10SM FEW200 SCT250 28/13 A2985 RMK AO2 SLP105 T02830133 $
Conditions at: KFAT (FRESNO , CA, US) observed 1653 UTC 24 June 2019
Temperature: 28.3°C (83°F)
Dewpoint: 13.3°C (56°F) [RH = 40%]
Pressure (altimeter): 29.85 inches Hg (1010.9 mb)
[Sea-level pressure: 1010.5 mb]
Winds: from the ESE (120 degrees) at 7 MPH (6 knots; 3.1 m/s)
Visibility: 10 or more miles (16+ km)
Ceiling: at least 12,000 feet AGL
Clouds: few clouds at 20000 feet AGL
scattered clouds at 25000 feet AGL
Weather:
SOME DATA ABOVE MAY BE INACCURATE!!!
"$" is an indication the sensor requires maintenance

Forecast for: KFAT (FRESNO , CA, US)
Text: KFAT 252320Z 2600/2624 31013G19KT P6SM FEW200
Forecast period: 0000 to 1000 UTC 26 June 2019
Forecast type: FROM: standard forecast or significant change
Winds: from the NW (310 degrees) at 15 MPH (13 knots; 6.7 m/s)
gusting to 22 MPH (19 knots; 9.8 m/s)
Visibility: 6 or more miles 10+ km)
Ceiling: at least 12,000 feet AGL
Clouds: few clouds at 20000 feet AGL
Weather: no significant weather forecast for this period
Text: FM261000 30008KT P6SM FEW200
Forecast period: 1000 UTC 26 June 2019 to 0000 UTC 27 June 2019
Forecast type: FROM: standard forecast or significant change
Winds: from the WNW (300 degrees) at 9 MPH (8 knots; 4.1 m/s)
Visibility: 6 or more miles 10+ km)
Ceiling: at least 12,000 feet AGL
Clouds: few clouds at 20000 feet AGL
Weather: no significant weather forecast for this period